UAL193 PGUM-PTRO
Flight info
| Callsign | UAL193 |
|---|---|
| Flight time | N/A |
| Altitude | 34000 |
| Route | IDAAS YP ROR |
| Aircraft | B38M/M-SDE1FGHILORVWXY/HB1 |
Departure
| Time | N/A |
|---|---|
| Airport | Antonio B. Won Pat International Airport (PGUM) |
Arrival
| Time | 2026-05-03 20:20 |
|---|---|
| Airport | Roman Tmetuchl International Airport (PTRO) |
| Time | Latitude | Longitude | Altitude | Speed | Heading |
|---|---|---|---|---|---|
| 2026-05-03 20:15 | 7.38260 | 134.35419 | 3385 ft | 174 kts | 142° |
| 2026-05-03 20:15 | 7.37522 | 134.36339 | 3255 ft | 169 kts | 108° |
| 2026-05-03 20:15 | 7.37295 | 134.37479 | 3137 ft | 163 kts | 92° |
| 2026-05-03 20:15 | 7.37174 | 134.38559 | 3027 ft | 151 kts | 94° |
| 2026-05-03 20:16 | 7.37083 | 134.39595 | 2817 ft | 147 kts | 90° |
| 2026-05-03 20:16 | 7.37045 | 134.40612 | 2590 ft | 145 kts | 88° |
| 2026-05-03 20:16 | 7.37021 | 134.41629 | 2408 ft | 145 kts | 88° |
| 2026-05-03 20:16 | 7.36999 | 134.42631 | 2201 ft | 144 kts | 88° |
| 2026-05-03 20:17 | 7.36975 | 134.43642 | 1990 ft | 145 kts | 88° |
| 2026-05-03 20:17 | 7.36953 | 134.44654 | 1796 ft | 144 kts | 88° |
| 2026-05-03 20:17 | 7.36928 | 134.45662 | 1575 ft | 145 kts | 89° |
| 2026-05-03 20:17 | 7.36882 | 134.46671 | 1380 ft | 142 kts | 90° |
| 2026-05-03 20:18 | 7.36842 | 134.47668 | 1265 ft | 141 kts | 88° |
| 2026-05-03 20:18 | 7.36830 | 134.48653 | 1120 ft | 141 kts | 88° |
| 2026-05-03 20:18 | 7.36825 | 134.49663 | 888 ft | 144 kts | 88° |
| 2026-05-03 20:18 | 7.36812 | 134.50666 | 709 ft | 144 kts | 90° |
| 2026-05-03 20:19 | 7.36782 | 134.51692 | 538 ft | 149 kts | 91° |
| 2026-05-03 20:19 | 7.36771 | 134.52737 | 364 ft | 149 kts | 91° |
| 2026-05-03 20:19 | 7.36746 | 134.53769 | 165 ft | 141 kts | 90° |
| 2026-05-03 20:19 | 7.36728 | 134.54590 | 160 ft | 83 kts | 93° |
| 2026-05-03 20:20 | 7.36720 | 134.54993 | 160 ft | 49 kts | 88° |
| 2026-05-03 20:20 | 7.36720 | 134.55276 | 157 ft | 20 kts | 91° |
| 2026-05-03 20:20 | 7.36709 | 134.55377 | 157 ft | 9 kts | 138° |
| 2026-05-03 20:20 | 7.36678 | 134.55347 | 158 ft | 8 kts | 288° |
| 2026-05-03 20:21 | 7.36702 | 134.55285 | 157 ft | 10 kts | 289° |
| 2026-05-03 20:21 | 7.36712 | 134.55205 | 157 ft | 13 kts | 272° |
| 2026-05-03 20:21 | 7.36713 | 134.55110 | 158 ft | 14 kts | 270° |
| 2026-05-03 20:21 | 7.36715 | 134.55008 | 159 ft | 15 kts | 271° |
| 2026-05-03 20:22 | 7.36718 | 134.54904 | 161 ft | 16 kts | 272° |
| 2026-05-03 20:22 | 7.36722 | 134.54788 | 161 ft | 18 kts | 271° |
| 2026-05-03 20:22 | 7.36724 | 134.54657 | 160 ft | 20 kts | 270° |
| 2026-05-03 20:22 | 7.36726 | 134.54512 | 160 ft | 21 kts | 271° |
| 2026-05-03 20:23 | 7.36730 | 134.54356 | 160 ft | 23 kts | 271° |
| 2026-05-03 20:23 | 7.36735 | 134.54184 | 157 ft | 26 kts | 271° |
| 2026-05-03 20:23 | 7.36738 | 134.53996 | 156 ft | 27 kts | 271° |
| 2026-05-03 20:23 | 7.36742 | 134.53799 | 156 ft | 29 kts | 271° |
| 2026-05-03 20:24 | 7.36748 | 134.53592 | 155 ft | 30 kts | 271° |
| 2026-05-03 20:24 | 7.36735 | 134.53464 | 157 ft | 12 kts | 223° |
| 2026-05-03 20:24 | 7.36666 | 134.53410 | 158 ft | 13 kts | 218° |
| 2026-05-03 20:24 | 7.36591 | 134.53348 | 158 ft | 15 kts | 224° |
| 2026-05-03 20:25 | 7.36560 | 134.53294 | 158 ft | 3 kts | 218° |
| 2026-05-03 20:25 | 7.36532 | 134.53288 | 158 ft | 5 kts | 185° |
| 2026-05-03 20:25 | 7.36501 | 134.53287 | 158 ft | 0 kts | 181° |